Time;durP1;ratioP1;P1;durP2;ratioP2;P2;SDS_P1;SDS_P2;PMS_P1;PMS_P2;Temp;Humidity;BMP_temperature;BMP_pressure;BME280_temperature;BME280_humidity;BME280_pressure;Samples;Min_cycle;Max_cycle;Signal;HPM_P1;HPM_P2
2021/12/22 00:00:42;;;;;;;18.52;13.25;;;-1.80;72.40;;;;;;7383169;19;20136;-60
2021/12/22 00:03:12;;;;;;;20.50;13.18;;;-1.90;72.40;;;;;;7372784;19;20124;-59
2021/12/22 00:05:44;;;;;;;20.83;13.15;;;-1.90;72.70;;;;;;7368695;19;20171;-59
2021/12/22 00:08:15;;;;;;;19.17;12.73;;;-2.00;72.80;;;;;;7363156;19;20128;-60
2021/12/22 00:10:49;;;;;;;22.73;13.25;;;-2.00;72.70;;;;;;7362957;19;20186;-53
2021/12/22 00:13:19;;;;;;;22.42;12.25;;;-2.00;72.80;;;;;;7364131;19;20136;-53
2021/12/22 00:15:48;;;;;;;18.83;12.13;;;-2.00;73.00;;;;;;7376602;19;20246;-53
2021/12/22 00:18:18;;;;;;;21.08;13.25;;;-2.00;73.00;;;;;;7378593;19;20207;-53
2021/12/22 00:20:47;;;;;;;22.75;13.10;;;-1.90;72.70;;;;;;7376858;19;20590;-54
2021/12/22 00:23:17;;;;;;;20.40;11.50;;;-2.00;72.60;;;;;;7373339;19;20136;-54
2021/12/22 00:25:49;;;;;;;24.83;13.82;;;-2.00;72.80;;;;;;7378841;19;20471;-54
2021/12/22 00:28:19;;;;;;;22.38;12.90;;;-1.90;72.70;;;;;;7382645;19;20609;-54
2021/12/22 00:30:52;;;;;;;20.30;12.32;;;-1.90;72.20;;;;;;7374396;19;20128;-54
2021/12/22 00:33:22;;;;;;;22.40;12.00;;;-1.90;72.90;;;;;;7374175;19;20179;-54
2021/12/22 00:35:52;;;;;;;23.45;13.48;;;-1.90;72.20;;;;;;7376927;19;20130;-54
2021/12/22 00:38:23;;;;;;;20.70;13.27;;;-1.90;72.20;;;;;;7371623;19;20502;-54
2021/12/22 00:40:55;;;;;;;26.23;13.77;;;-1.90;72.10;;;;;;7382635;19;20154;-54
2021/12/22 00:43:28;;;;;;;23.25;13.02;;;-2.00;72.30;;;;;;7367549;19;20131;-54
2021/12/22 00:45:58;;;;;;;19.50;12.32;;;-2.00;72.50;;;;;;7374931;19;20128;-54
2021/12/22 00:48:27;;;;;;;20.40;11.80;;;-2.10;72.40;;;;;;7380063;19;20151;-55
2021/12/22 00:50:59;;;;;;;23.33;12.63;;;-2.10;72.80;;;;;;7381519;19;20166;-54
2021/12/22 00:53:32;;;;;;;20.52;13.63;;;-2.10;73.00;;;;;;7381843;19;20160;-54
2021/12/22 00:56:04;;;;;;;21.80;14.02;;;-2.10;73.50;;;;;;7378807;19;20144;-54
2021/12/22 00:58:34;;;;;;;25.45;14.23;;;-2.00;73.30;;;;;;7383993;19;20135;-54
2021/12/22 01:01:03;;;;;;;23.92;14.43;;;-1.90;72.50;;;;;;7378086;19;20131;-54
2021/12/22 01:03:34;;;;;;;26.60;16.55;;;-2.00;72.10;;;;;;7379971;19;20140;-54
2021/12/22 01:06:04;;;;;;;23.50;14.38;;;-2.00;72.60;;;;;;7374859;19;20135;-54
2021/12/22 01:08:34;;;;;;;26.80;14.40;;;-2.10;73.60;;;;;;7376332;19;20147;-54
2021/12/22 01:11:07;;;;;;;21.35;13.73;;;-2.10;72.70;;;;;;7373107;19;20178;-54
2021/12/22 01:13:36;;;;;;;21.83;13.25;;;-2.00;72.40;;;;;;7361377;19;20147;-54
2021/12/22 01:16:06;;;;;;;23.92;14.32;;;-2.10;72.50;;;;;;7368637;19;20130;-54
2021/12/22 01:18:36;;;;;;;21.80;13.13;;;-2.20;73.50;;;;;;7380112;19;20138;-54
2021/12/22 01:21:13;;;;;;;22.70;14.85;;;-2.20;73.60;;;;;;7378117;19;20614;-54
2021/12/22 01:24:00;;;;;;;24.23;13.82;;;-2.20;73.60;;;;;;7374509;19;20127;-55
2021/12/22 01:26:40;;;;;;;22.50;12.90;;;-2.10;73.80;;;;;;7364729;19;20127;-55
2021/12/22 01:29:10;;;;;;;21.73;13.40;;;-2.20;73.80;;;;;;7374097;19;20146;-55
2021/12/22 01:31:40;;;;;;;25.30;15.23;;;-2.30;74.20;;;;;;7374511;19;20128;-55
2021/12/22 01:34:10;;;;;;;19.83;12.25;;;-2.40;74.30;;;;;;7369203;19;20640;-55
2021/12/22 01:36:40;;;;;;;23.13;12.23;;;-2.40;74.70;;;;;;7374823;19;20492;-55
2021/12/22 01:39:10;;;;;;;21.63;14.05;;;-2.40;75.10;;;;;;7371237;19;20142;-54
2021/12/22 01:41:42;;;;;;;25.25;13.48;;;-2.40;74.90;;;;;;7372096;19;20529;-55
2021/12/22 01:44:13;;;;;;;20.35;13.75;;;-2.30;74.70;;;;;;7381212;19;20139;-55
2021/12/22 01:49:50;;;;;;;27.23;14.13;;;-2.10;74.70;;;;;;7382068;19;20124;-55
2021/12/22 01:52:21;;;;;;;24.75;14.45;;;-2.10;73.70;;;;;;7385736;19;20600;-55
2021/12/22 01:55:03;;;;;;;23.60;14.57;;;-2.10;73.60;;;;;;7386660;19;20135;-55
2021/12/22 01:57:45;;;;;;;20.35;12.93;;;-2.10;74.10;;;;;;7381988;19;20509;-55
2021/12/22 02:00:16;;;;;;;23.13;12.57;;;-2.10;74.00;;;;;;7376090;19;20479;-55
2021/12/22 02:02:46;;;;;;;25.08;15.15;;;-2.20;74.30;;;;;;7375903;19;20139;-55
2021/12/22 02:05:15;;;;;;;23.85;14.65;;;-2.20;74.30;;;;;;7390042;19;20132;-55
2021/12/22 02:07:49;;;;;;;26.92;16.05;;;-2.10;74.60;;;;;;7378085;19;20136;-55
2021/12/22 02:10:35;;;;;;;25.27;15.07;;;-2.10;74.40;;;;;;7366172;19;20863;-54
2021/12/22 02:13:09;;;;;;;24.65;14.27;;;-2.00;74.20;;;;;;7382661;19;20132;-54
2021/12/22 02:15:38;;;;;;;25.35;15.57;;;-2.00;73.90;;;;;;7375076;19;20140;-54
2021/12/22 02:18:08;;;;;;;27.05;14.45;;;-2.00;74.00;;;;;;7383003;19;20586;-54
2021/12/22 02:20:42;;;;;;;26.13;14.15;;;-2.00;74.00;;;;;;7376804;19;20708;-54
2021/12/22 02:23:12;;;;;;;25.17;14.75;;;-2.00;74.10;;;;;;7379513;19;20507;-54
2021/12/22 02:25:47;;;;;;;26.58;15.20;;;-2.00;73.70;;;;;;7386848;19;20139;-54
2021/12/22 02:28:21;;;;;;;25.48;15.32;;;-1.90;73.60;;;;;;7382009;19;20135;-54
2021/12/22 02:30:54;;;;;;;21.77;14.65;;;-1.90;73.40;;;;;;7377206;19;20595;-54
2021/12/22 02:33:32;;;;;;;23.13;13.35;;;-2.00;73.40;;;;;;7377593;19;20171;-54
2021/12/22 02:36:21;;;;;;;23.50;13.50;;;-2.00;73.20;;;;;;7381249;19;20900;-54
2021/12/22 02:38:52;;;;;;;21.50;14.68;;;-2.10;72.90;;;;;;7380111;19;20521;-54
2021/12/22 02:41:26;;;;;;;21.05;14.30;;;-2.30;73.10;;;;;;7387551;19;20135;-54
2021/12/22 02:43:56;;;;;;;23.48;14.02;;;-2.40;73.60;;;;;;7380452;19;20219;-54
2021/12/22 02:46:29;;;;;;;20.50;13.50;;;-2.50;73.70;;;;;;7382338;19;20135;-55
2021/12/22 02:48:59;;;;;;;26.42;13.65;;;-2.50;73.70;;;;;;7386887;19;20674;-54
2021/12/22 02:51:35;;;;;;;28.63;15.05;;;-2.50;73.70;;;;;;7377615;19;20154;-55
2021/12/22 02:54:11;;;;;;;21.73;14.13;;;-2.50;73.80;;;;;;7374335;19;20226;-55
2021/12/22 02:56:52;;;;;;;27.08;13.90;;;-2.60;73.90;;;;;;7379320;19;20124;-55
2021/12/22 02:59:44;;;;;;;20.88;13.70;;;-2.70;74.10;;;;;;7388343;19;20139;-55
2021/12/22 03:02:21;;;;;;;23.45;12.93;;;-2.60;74.00;;;;;;7378912;19;20164;-56
2021/12/22 03:04:57;;;;;;;21.70;13.75;;;-2.80;74.10;;;;;;7382279;19;20625;-55
2021/12/22 03:07:31;;;;;;;24.73;15.13;;;-2.80;74.40;;;;;;7377442;19;20148;-55
2021/12/22 03:10:03;;;;;;;23.45;15.15;;;-2.80;74.40;;;;;;7384687;19;20232;-55
2021/12/22 03:12:36;;;;;;;22.40;13.88;;;-2.90;74.50;;;;;;7380147;19;20830;-55
2021/12/22 03:15:08;;;;;;;25.08;13.35;;;-2.90;74.40;;;;;;7386912;19;20134;-55
2021/12/22 03:17:38;;;;;;;21.52;14.57;;;-2.90;74.60;;;;;;7387091;19;20127;-55
2021/12/22 03:20:09;;;;;;;25.30;13.65;;;-2.90;74.60;;;;;;7378991;19;20127;-54
2021/12/22 03:22:43;;;;;;;19.35;12.65;;;-2.90;74.40;;;;;;7377497;19;20610;-54
2021/12/22 03:25:17;;;;;;;28.70;14.68;;;-2.80;74.30;;;;;;7377895;19;20498;-54
2021/12/22 03:27:48;;;;;;;24.73;15.38;;;-2.90;74.30;;;;;;7376990;19;20139;-54
2021/12/22 03:30:22;;;;;;;21.33;13.00;;;-2.90;74.40;;;;;;7379170;19;20128;-54
2021/12/22 03:32:51;;;;;;;21.10;12.77;;;-2.90;74.20;;;;;;7380106;19;20978;-54
2021/12/22 03:35:22;;;;;;;23.55;13.73;;;-2.90;74.40;;;;;;7379844;19;20495;-54
2021/12/22 03:37:57;;;;;;;21.33;12.85;;;-2.90;74.20;;;;;;7382285;19;20248;-54
2021/12/22 03:40:28;;;;;;;24.88;14.60;;;-2.90;74.20;;;;;;7377670;19;20160;-54
2021/12/22 03:42:57;;;;;;;21.75;12.80;;;-2.90;74.10;;;;;;7378791;19;20120;-54
2021/12/22 03:45:30;;;;;;;23.35;15.23;;;-2.80;74.10;;;;;;7377257;19;20218;-54
2021/12/22 03:48:00;;;;;;;26.27;16.20;;;-2.90;74.00;;;;;;7383628;19;20198;-55
2021/12/22 03:50:29;;;;;;;20.98;12.82;;;-2.90;74.00;;;;;;7380119;19;20135;-54
2021/12/22 03:53:04;;;;;;;23.77;14.45;;;-2.80;73.90;;;;;;7378098;19;20169;-54
2021/12/22 03:55:33;;;;;;;22.10;13.18;;;-2.70;73.80;;;;;;7378369;19;20132;-54
2021/12/22 03:58:03;;;;;;;21.50;13.73;;;-2.70;73.30;;;;;;7382021;19;20617;-55
2021/12/22 04:00:35;;;;;;;18.75;12.10;;;-2.80;72.70;;;;;;7382883;19;20220;-55
2021/12/22 04:03:05;;;;;;;23.98;13.60;;;-2.90;73.00;;;;;;7379803;19;21175;-55
2021/12/22 04:05:34;;;;;;;20.30;13.13;;;-2.90;73.20;;;;;;7381114;19;20135;-55
2021/12/22 04:08:07;;;;;;;20.40;13.98;;;-3.00;73.10;;;;;;7377850;19;20138;-55
2021/12/22 04:10:39;;;;;;;22.85;13.85;;;-3.00;73.50;;;;;;7367710;19;20656;-55
2021/12/22 04:13:10;;;;;;;24.58;13.40;;;-3.00;73.60;;;;;;7379394;19;21236;-55
2021/12/22 04:15:40;;;;;;;21.00;13.65;;;-2.90;73.30;;;;;;7380392;19;20131;-55
2021/12/22 04:18:10;;;;;;;19.65;13.07;;;-2.90;73.10;;;;;;7381733;19;20123;-55
2021/12/22 04:20:39;;;;;;;26.35;13.88;;;-2.90;73.20;;;;;;7379643;19;20139;-55
2021/12/22 04:23:12;;;;;;;21.25;13.40;;;-2.90;72.80;;;;;;7375129;19;20131;-55
2021/12/22 04:25:42;;;;;;;18.52;13.57;;;-3.00;72.60;;;;;;7377218;19;20134;-55
2021/12/22 04:28:12;;;;;;;21.17;13.35;;;-3.00;73.20;;;;;;7379816;19;20168;-56
2021/12/22 04:30:45;;;;;;;23.33;13.73;;;-3.00;73.40;;;;;;7373506;19;20520;-55
2021/12/22 04:33:15;;;;;;;25.05;14.25;;;-3.00;73.20;;;;;;7375313;19;20127;-55
2021/12/22 04:35:45;;;;;;;22.95;13.75;;;-3.00;73.20;;;;;;7379097;19;20640;-55
2021/12/22 04:38:18;;;;;;;27.90;14.15;;;-3.00;73.00;;;;;;7373683;19;20143;-55
2021/12/22 04:40:47;;;;;;;23.05;13.27;;;-2.90;72.90;;;;;;7383279;19;20491;-55
2021/12/22 04:43:17;;;;;;;26.95;13.70;;;-2.90;72.60;;;;;;7379613;19;20131;-55
2021/12/22 04:45:46;;;;;;;28.52;14.02;;;-2.90;72.60;;;;;;7376238;19;20491;-55
2021/12/22 04:48:18;;;;;;;24.55;14.98;;;-2.80;72.40;;;;;;7376366;19;20139;-55
2021/12/22 04:50:48;;;;;;;27.00;15.07;;;-2.80;72.20;;;;;;7386803;19;20131;-55
2021/12/22 04:53:23;;;;;;;23.73;13.50;;;-2.80;72.00;;;;;;7376522;19;20944;-55
2021/12/22 04:55:53;;;;;;;26.58;13.93;;;-2.70;71.80;;;;;;7380665;19;20135;-55
2021/12/22 04:58:25;;;;;;;24.80;15.32;;;-2.80;71.50;;;;;;7374225;19;20614;-55
2021/12/22 05:00:54;;;;;;;28.17;14.23;;;-2.90;71.90;;;;;;7374889;19;20143;-56
2021/12/22 05:03:24;;;;;;;22.20;13.82;;;-2.90;72.30;;;;;;7376191;19;20238;-55
2021/12/22 05:05:53;;;;;;;27.27;13.73;;;-3.00;72.30;;;;;;7378534;19;20597;-55
2021/12/22 05:08:25;;;;;;;24.10;13.48;;;-3.10;72.50;;;;;;7377436;19;20619;-56
2021/12/22 05:10:57;;;;;;;18.77;11.45;;;-3.10;73.10;;;;;;7370149;19;20190;-55
2021/12/22 05:13:26;;;;;;;22.08;13.18;;;-3.20;73.20;;;;;;7376522;19;20140;-55
2021/12/22 05:15:56;;;;;;;21.15;13.45;;;-3.30;73.30;;;;;;7369479;19;20123;-55
2021/12/22 05:18:47;;;;;;;19.52;11.35;;;-3.20;73.90;;;;;;7372275;19;20213;-55
2021/12/22 05:21:16;;;;;;;29.85;13.13;;;-3.10;73.60;;;;;;7379370;19;20135;-55
2021/12/22 05:23:48;;;;;;;18.95;12.13;;;-3.00;73.20;;;;;;7371219;19;21778;-54
2021/12/22 05:26:18;;;;;;;25.35;14.70;;;-3.00;73.00;;;;;;7378328;19;20124;-54
2021/12/22 05:28:47;;;;;;;26.65;14.38;;;-3.00;72.70;;;;;;7375137;19;20143;-55
2021/12/22 05:31:17;;;;;;;24.70;12.70;;;-3.00;72.50;;;;;;7374072;19;20758;-55
2021/12/22 05:33:46;;;;;;;25.13;13.77;;;-3.10;72.40;;;;;;7372990;19;20120;-54
2021/12/22 05:36:16;;;;;;;21.13;12.73;;;-3.20;72.80;;;;;;7373282;19;20138;-54
2021/12/22 05:38:48;;;;;;;22.63;13.15;;;-3.20;73.00;;;;;;7374789;19;20123;-54
2021/12/22 05:41:18;;;;;;;23.00;13.18;;;-3.30;73.20;;;;;;7379385;19;20171;-54
2021/12/22 05:43:47;;;;;;;23.40;12.95;;;-3.30;73.20;;;;;;7371362;19;20128;-54
2021/12/22 05:46:19;;;;;;;27.30;14.05;;;-3.20;73.30;;;;;;7377727;19;20131;-55
2021/12/22 05:48:50;;;;;;;23.90;14.75;;;-3.30;73.00;;;;;;7375408;19;20128;-55
2021/12/22 05:51:21;;;;;;;29.75;15.00;;;-3.30;73.20;;;;;;7382494;19;20124;-55
2021/12/22 05:53:53;;;;;;;21.70;13.75;;;-3.20;73.20;;;;;;7376669;19;20612;-55
2021/12/22 05:56:23;;;;;;;25.13;15.07;;;-3.10;72.90;;;;;;7381378;19;20132;-55
2021/12/22 05:58:52;;;;;;;31.90;17.65;;;-3.10;72.60;;;;;;7373279;19;20189;-55
2021/12/22 06:01:22;;;;;;;22.08;13.25;;;-3.10;72.50;;;;;;7370572;19;20128;-55
2021/12/22 06:03:51;;;;;;;24.98;14.30;;;-3.10;72.40;;;;;;7381326;19;20128;-57
2021/12/22 06:06:21;;;;;;;26.13;13.90;;;-3.10;72.50;;;;;;7374553;19;20882;-55
2021/12/22 06:08:53;;;;;;;24.35;13.35;;;-3.20;72.50;;;;;;7374383;19;20221;-56
2021/12/22 06:11:22;;;;;;;23.60;13.60;;;-3.30;72.60;;;;;;7373079;19;20162;-55
2021/12/22 06:13:52;;;;;;;23.60;13.38;;;-3.30;73.20;;;;;;7379408;19;20135;-55
2021/12/22 06:16:21;;;;;;;22.30;14.20;;;-3.40;73.30;;;;;;7366443;19;20128;-55
2021/12/22 06:18:57;;;;;;;28.58;15.77;;;-3.30;73.40;;;;;;7378429;19;20135;-55
2021/12/22 06:21:27;;;;;;;21.35;12.77;;;-3.40;73.20;;;;;;7376557;19;20159;-55
2021/12/22 06:23:59;;;;;;;32.05;13.77;;;-3.40;73.40;;;;;;7375257;19;20128;-55
2021/12/22 06:26:29;;;;;;;23.05;14.48;;;-3.30;74.40;;;;;;7367386;19;20132;-55
2021/12/22 06:28:58;;;;;;;28.63;16.17;;;-3.30;73.10;;;;;;7364926;19;20239;-55
2021/12/22 06:31:28;;;;;;;30.27;16.95;;;-3.30;73.00;;;;;;7371881;19;20127;-55
2021/12/22 06:33:58;;;;;;;23.77;12.98;;;-3.30;72.80;;;;;;7375024;19;20158;-55
2021/12/22 06:36:27;;;;;;;24.77;15.00;;;-3.30;73.10;;;;;;7381222;19;20646;-55
2021/12/22 06:38:59;;;;;;;25.33;14.20;;;-3.40;72.90;;;;;;7377289;19;20135;-55
2021/12/22 06:41:29;;;;;;;24.25;16.35;;;-3.30;72.80;;;;;;7382767;19;20135;-55
2021/12/22 06:44:01;;;;;;;34.45;17.77;;;-3.20;73.10;;;;;;7382051;19;20131;-55
2021/12/22 06:46:33;;;;;;;29.58;16.55;;;-3.20;73.00;;;;;;7366992;19;20498;-55
2021/12/22 06:49:02;;;;;;;26.10;14.98;;;-3.20;72.80;;;;;;7379839;19;20246;-55
2021/12/22 06:51:32;;;;;;;25.70;16.00;;;-3.20;72.70;;;;;;7372672;19;20641;-61
2021/12/22 06:54:04;;;;;;;27.17;14.85;;;-3.30;72.80;;;;;;7376552;19;20559;-62
2021/12/22 06:56:34;;;;;;;25.65;15.68;;;-3.30;73.10;;;;;;7378674;19;20140;-60
2021/12/22 06:59:06;;;;;;;25.73;15.93;;;-3.20;72.70;;;;;;7381103;19;20650;-60
2021/12/22 07:01:36;;;;;;;32.15;14.25;;;-3.20;72.40;;;;;;7378816;19;20135;-60
2021/12/22 07:04:06;;;;;;;26.20;15.43;;;-3.20;72.30;;;;;;7379782;19;20164;-60
2021/12/22 07:06:35;;;;;;;29.25;16.10;;;-3.40;72.40;;;;;;7379447;19;20128;-60
2021/12/22 07:09:09;;;;;;;32.17;16.70;;;-3.50;72.50;;;;;;7381422;19;20127;-60
2021/12/22 07:11:41;;;;;;;25.08;14.80;;;-3.50;72.90;;;;;;7365419;19;20155;-60
2021/12/22 07:14:13;;;;;;;29.25;15.65;;;-3.50;73.10;;;;;;7383886;19;20167;-60
2021/12/22 07:16:42;;;;;;;31.10;15.38;;;-3.50;73.00;;;;;;7361702;19;20136;-59
2021/12/22 07:19:12;;;;;;;23.83;15.20;;;-3.50;72.90;;;;;;7368209;19;20135;-59
2021/12/22 07:21:41;;;;;;;26.83;16.15;;;-3.60;73.00;;;;;;7368288;19;20235;-59
2021/12/22 07:24:14;;;;;;;23.98;13.63;;;-3.50;73.30;;;;;;7378019;19;20140;-59
2021/12/22 07:26:43;;;;;;;22.52;13.20;;;-3.50;73.10;;;;;;7377378;19;20793;-59
2021/12/22 07:29:13;;;;;;;32.67;14.80;;;-3.40;72.70;;;;;;7380739;19;20166;-59
2021/12/22 07:31:42;;;;;;;21.35;13.48;;;-3.30;72.90;;;;;;7384417;19;20240;-59
2021/12/22 07:34:18;;;;;;;27.58;14.80;;;-3.20;72.50;;;;;;7383691;19;20147;-59
2021/12/22 07:36:56;;;;;;;25.90;15.05;;;-3.10;72.40;;;;;;7383097;19;20142;-59
2021/12/22 07:39:29;;;;;;;26.58;13.57;;;-3.00;71.70;;;;;;7386217;19;20127;-59
2021/12/22 07:41:58;;;;;;;24.13;14.05;;;-2.90;70.90;;;;;;7386448;19;20131;-59
2021/12/22 07:44:30;;;;;;;29.00;15.20;;;-2.80;70.70;;;;;;7387745;19;20132;-59
2021/12/22 07:47:00;;;;;;;25.45;15.25;;;-2.90;70.20;;;;;;7374456;19;20602;-59
2021/12/22 07:49:30;;;;;;;29.98;15.32;;;-3.00;71.00;;;;;;7383623;19;20142;-59
2021/12/22 07:51:59;;;;;;;26.27;14.13;;;-3.00;71.00;;;;;;7387315;19;20127;-59
2021/12/22 07:54:31;;;;;;;20.75;12.80;;;-2.90;70.90;;;;;;7385047;19;20128;-59
2021/12/22 07:57:01;;;;;;;26.45;13.65;;;-2.90;70.80;;;;;;7384596;19;20127;-59
2021/12/22 07:59:31;;;;;;;25.10;14.45;;;-2.80;70.90;;;;;;7385387;19;20120;-59
2021/12/22 08:02:00;;;;;;;27.25;14.60;;;-2.80;70.30;;;;;;7381903;19;20139;-59
2021/12/22 08:04:30;;;;;;;23.73;15.27;;;-2.80;70.20;;;;;;7384969;19;20127;-59
2021/12/22 08:06:59;;;;;;;24.60;13.25;;;-2.80;70.20;;;;;;7378833;19;20501;-59
2021/12/22 08:09:32;;;;;;;26.80;13.80;;;-2.80;70.80;;;;;;7384074;19;20161;-59
2021/12/22 08:12:04;;;;;;;28.88;15.75;;;-2.80;70.70;;;;;;7379028;19;20148;-59
2021/12/22 08:14:34;;;;;;;22.95;13.07;;;-2.80;70.60;;;;;;7382380;19;20183;-59
2021/12/22 08:17:04;;;;;;;22.60;13.00;;;-2.80;70.80;;;;;;7375188;19;20131;-59
2021/12/22 08:19:33;;;;;;;25.15;14.25;;;-2.80;70.80;;;;;;7382403;19;20212;-54
2021/12/22 08:22:03;;;;;;;24.80;14.00;;;-2.70;70.60;;;;;;7382160;19;20524;-55
2021/12/22 08:24:37;;;;;;;24.27;15.60;;;-2.80;70.50;;;;;;7382977;19;20132;-54
2021/12/22 08:27:07;;;;;;;20.70;12.68;;;-2.80;70.50;;;;;;7380867;19;20602;-54
2021/12/22 08:29:42;;;;;;;23.17;14.65;;;-2.70;70.60;;;;;;7379930;19;20127;-54
2021/12/22 08:32:12;;;;;;;31.17;16.35;;;-2.70;70.50;;;;;;7379560;19;20127;-55
2021/12/22 08:34:42;;;;;;;24.58;13.90;;;-2.60;70.50;;;;;;7380559;19;20211;-55
2021/12/22 08:39:59;;;;;;;24.73;14.15;;;-2.60;70.40;;;;;;7381345;19;20606;-55
2021/12/22 08:42:29;;;;;;;26.15;14.00;;;-2.60;70.70;;;;;;7384087;19;20131;-55
2021/12/22 08:44:59;;;;;;;28.70;13.52;;;-2.70;70.60;;;;;;7382604;19;20174;-55
2021/12/22 08:47:28;;;;;;;29.05;15.38;;;-2.70;70.90;;;;;;7381717;19;20124;-55
2021/12/22 08:49:57;;;;;;;19.23;12.80;;;-2.60;71.00;;;;;;7382779;19;20139;-55
2021/12/22 08:52:27;;;;;;;27.67;14.60;;;-2.50;70.90;;;;;;7381512;19;20640;-55
2021/12/22 08:54:59;;;;;;;30.58;16.02;;;-2.40;70.60;;;;;;7385943;19;20136;-55
2021/12/22 08:57:29;;;;;;;25.60;14.80;;;-2.40;70.20;;;;;;7383361;19;20131;-55
2021/12/22 08:59:58;;;;;;;27.38;15.43;;;-2.30;70.10;;;;;;7381469;19;20139;-56
2021/12/22 09:02:28;;;;;;;31.23;17.05;;;-1.90;70.60;;;;;;7381355;19;20507;-55
2021/12/22 09:04:57;;;;;;;29.17;16.00;;;-0.90;67.60;;;;;;7384381;19;20955;-56
2021/12/22 09:07:27;;;;;;;22.90;13.98;;;0.40;62.50;;;;;;7379520;19;20120;-56
2021/12/22 09:09:59;;;;;;;18.17;13.15;;;1.80;58.80;;;;;;7385563;19;20139;-56
2021/12/22 09:12:32;;;;;;;15.93;12.10;;;2.60;55.10;;;;;;7381303;19;20193;-58
2021/12/22 09:15:02;;;;;;;18.75;13.63;;;3.40;54.90;;;;;;7375032;19;20131;-56
2021/12/22 09:17:31;;;;;;;17.05;12.40;;;3.80;53.30;;;;;;7364683;19;20131;-57
2021/12/22 09:20:01;;;;;;;18.00;12.90;;;4.90;51.70;;;;;;7373380;19;20135;-57
2021/12/22 09:22:31;;;;;;;18.50;14.45;;;5.70;49.10;;;;;;7368504;19;20127;-57
2021/12/22 09:25:03;;;;;;;17.40;13.57;;;5.90;47.10;;;;;;7372846;19;20138;-57
2021/12/22 09:27:33;;;;;;;21.52;16.13;;;5.10;48.10;;;;;;7370406;19;20126;-58
2021/12/22 09:30:05;;;;;;;19.05;15.02;;;3.60;50.20;;;;;;7375326;19;20131;-58
2021/12/22 09:32:35;;;;;;;19.73;14.73;;;2.50;52.70;;;;;;7376567;19;20127;-58
2021/12/22 09:35:05;;;;;;;21.70;15.13;;;1.70;55.30;;;;;;7367128;19;20134;-58
2021/12/22 09:37:34;;;;;;;18.33;13.40;;;1.30;56.70;;;;;;7371648;19;20127;-57
2021/12/22 09:40:09;;;;;;;27.42;16.17;;;1.10;58.30;;;;;;7375831;19;20170;-57
2021/12/22 09:42:41;;;;;;;25.73;15.85;;;1.00;57.90;;;;;;7379023;19;20119;-57
2021/12/22 09:45:11;;;;;;;19.65;13.70;;;0.80;58.80;;;;;;7376397;19;20716;-58
2021/12/22 09:47:58;;;;;;;21.17;14.30;;;0.50;59.70;;;;;;7373755;19;20135;-57
2021/12/22 09:50:38;;;;;;;25.08;13.80;;;0.50;60.40;;;;;;7371512;19;20128;-57
2021/12/22 09:53:08;;;;;;;23.02;14.38;;;0.60;59.50;;;;;;7375295;19;20609;-56
2021/12/22 09:55:40;;;;;;;21.23;14.93;;;0.60;59.60;;;;;;7376293;19;20757;-57
2021/12/22 09:58:11;;;;;;;21.17;13.45;;;0.60;59.40;;;;;;7366597;19;20135;-56
2021/12/22 10:00:42;;;;;;;19.02;12.82;;;0.60;59.80;;;;;;7372171;19;20127;-57
2021/12/22 10:03:14;;;;;;;20.90;12.85;;;0.60;59.00;;;;;;7379131;19;20128;-57
2021/12/22 10:05:47;;;;;;;20.50;12.25;;;0.60;59.00;;;;;;7385205;19;20605;-57
2021/12/22 10:08:23;;;;;;;19.88;11.40;;;0.80;59.40;;;;;;7385102;19;20631;-56
2021/12/22 10:11:04;;;;;;;20.63;12.95;;;0.60;58.80;;;;;;7374099;19;20218;-56
2021/12/22 10:13:34;;;;;;;17.60;12.93;;;0.60;58.60;;;;;;7376014;19;20481;-57
2021/12/22 10:16:13;;;;;;;23.00;14.00;;;0.70;58.70;;;;;;7386039;19;20127;-56
2021/12/22 10:18:43;;;;;;;20.38;12.88;;;0.80;58.30;;;;;;7388216;19;20265;-57
2021/12/22 10:21:14;;;;;;;19.92;12.02;;;0.70;57.90;;;;;;7386006;19;20132;-57
2021/12/22 10:23:46;;;;;;;17.52;11.85;;;0.70;58.30;;;;;;7387691;19;20163;-56
2021/12/22 10:26:20;;;;;;;23.00;12.57;;;0.70;58.10;;;;;;7383101;19;20535;-56
2021/12/22 10:28:53;;;;;;;22.63;12.65;;;0.70;58.10;;;;;;7385915;19;20127;-56
2021/12/22 10:31:28;;;;;;;18.75;12.43;;;0.70;58.10;;;;;;7387004;19;20145;-59
2021/12/22 10:33:58;;;;;;;18.45;11.85;;;0.70;58.20;;;;;;7388028;19;20130;-61
2021/12/22 10:36:28;;;;;;;18.17;12.60;;;0.70;58.10;;;;;;7384272;19;20156;-60
2021/12/22 10:39:01;;;;;;;16.50;10.68;;;0.70;58.00;;;;;;7389490;19;20464;-60
2021/12/22 10:41:34;;;;;;;19.58;12.48;;;0.80;58.10;;;;;;7386889;19;20617;-59
2021/12/22 10:44:10;;;;;;;21.52;12.65;;;0.80;57.80;;;;;;7387263;19;20139;-60
2021/12/22 10:46:40;;;;;;;18.65;11.73;;;0.90;58.10;;;;;;7386139;19;20147;-59
2021/12/22 10:49:17;;;;;;;20.55;13.23;;;0.90;58.20;;;;;;7380983;19;20119;-60
2021/12/22 10:51:57;;;;;;;21.00;12.23;;;0.80;58.20;;;;;;7385910;19;20127;-60
2021/12/22 10:54:34;;;;;;;18.85;11.98;;;0.90;58.00;;;;;;7385747;19;20131;-60
2021/12/22 10:57:15;;;;;;;18.20;11.82;;;1.00;57.70;;;;;;7389108;19;20135;-60
2021/12/22 10:59:47;;;;;;;18.45;11.98;;;1.00;57.70;;;;;;7388134;19;20138;-59
2021/12/22 11:02:25;;;;;;;19.17;11.73;;;0.90;57.00;;;;;;7386517;19;20486;-60
2021/12/22 11:04:55;;;;;;;21.38;12.40;;;1.00;57.60;;;;;;7387435;19;20466;-59
2021/12/22 11:07:27;;;;;;;17.20;10.73;;;1.10;57.90;;;;;;7385080;19;20131;-60
2021/12/22 11:09:57;;;;;;;24.13;12.93;;;1.60;57.70;;;;;;7388369;19;20143;-60
2021/12/22 11:12:39;;;;;;;16.55;11.25;;;2.80;53.70;;;;;;7381870;19;20519;-60
2021/12/22 11:15:25;;;;;;;16.67;11.00;;;5.00;49.80;;;;;;7389440;19;20134;-61
2021/12/22 11:17:55;;;;;;;17.55;11.90;;;6.50;46.90;;;;;;7390257;19;20554;-61
2021/12/22 11:20:25;;;;;;;14.90;11.80;;;7.90;44.30;;;;;;7386078;19;20493;-62
2021/12/22 11:22:59;;;;;;;16.35;12.10;;;8.30;41.10;;;;;;7383658;19;20693;-61
2021/12/22 11:25:30;;;;;;;15.32;12.38;;;7.80;41.00;;;;;;7379187;19;20127;-61
2021/12/22 11:28:02;;;;;;;17.75;11.68;;;7.90;41.90;;;;;;7385158;19;20132;-61
2021/12/22 11:30:32;;;;;;;20.23;14.85;;;8.10;41.10;;;;;;7382962;19;20162;-61
2021/12/22 11:33:02;;;;;;;15.10;12.50;;;7.50;40.70;;;;;;7385630;19;20516;-61
2021/12/22 11:35:39;;;;;;;18.35;13.23;;;6.40;43.50;;;;;;7381788;19;20220;-61
2021/12/22 11:38:09;;;;;;;18.27;12.80;;;5.40;45.10;;;;;;7384435;19;20605;-60
2021/12/22 11:40:42;;;;;;;18.10;13.55;;;4.60;47.10;;;;;;7384312;19;20158;-60
2021/12/22 11:43:17;;;;;;;18.27;13.77;;;4.10;49.20;;;;;;7386031;19;20540;-60
2021/12/22 11:45:48;;;;;;;18.60;12.55;;;3.70;50.00;;;;;;7385198;19;20167;-60
2021/12/22 11:48:18;;;;;;;18.00;12.63;;;3.50;50.50;;;;;;7384159;19;20139;-60
2021/12/22 11:50:50;;;;;;;18.48;13.50;;;3.30;51.10;;;;;;7386846;19;20127;-61
2021/12/22 11:53:19;;;;;;;17.55;11.60;;;3.00;51.90;;;;;;7385934;19;20120;-61
2021/12/22 11:55:52;;;;;;;18.17;12.35;;;2.90;51.70;;;;;;7385444;19;20131;-60
2021/12/22 11:58:25;;;;;;;17.88;13.68;;;2.70;52.00;;;;;;7383509;19;20134;-60
2021/12/22 12:01:08;;;;;;;16.63;12.63;;;2.60;52.40;;;;;;7387169;19;20127;-60
2021/12/22 12:03:41;;;;;;;18.95;12.27;;;2.70;53.00;;;;;;7386517;19;20132;-60
2021/12/22 12:06:12;;;;;;;17.23;12.07;;;2.70;53.00;;;;;;7388622;19;20195;-60
2021/12/22 12:08:47;;;;;;;20.08;12.50;;;2.50;52.70;;;;;;7385640;19;20139;-61
2021/12/22 12:11:22;;;;;;;18.40;12.18;;;2.50;53.30;;;;;;7377783;19;20182;-57
2021/12/22 12:14:00;;;;;;;22.40;12.80;;;2.40;53.40;;;;;;7384818;19;20123;-57
2021/12/22 12:22:16;;;;;;;18.48;12.48;;;2.30;54.20;;;;;;7384301;19;20608;-56
2021/12/22 12:24:49;;;;;;;20.92;13.00;;;2.10;54.00;;;;;;7383131;19;20131;-57
2021/12/22 12:27:50;;;;;;;19.58;12.05;;;2.10;54.30;;;;;;7377590;19;20131;-57
2021/12/22 12:30:28;;;;;;;17.95;11.82;;;2.20;54.30;;;;;;7383029;19;20120;-56
2021/12/22 12:33:06;;;;;;;19.40;13.27;;;2.10;54.20;;;;;;7380980;19;20528;-57
2021/12/22 12:35:38;;;;;;;18.67;12.25;;;2.20;54.20;;;;;;7382690;19;20131;-57
2021/12/22 12:38:15;;;;;;;22.63;12.45;;;2.30;54.70;;;;;;7380183;19;20146;-56
2021/12/22 12:41:14;;;;;;;17.42;12.50;;;2.20;54.60;;;;;;7381498;19;20146;-56
2021/12/22 12:43:57;;;;;;;19.23;11.63;;;2.10;54.90;;;;;;7384685;19;21121;-56
2021/12/22 12:46:50;;;;;;;23.42;12.40;;;2.10;54.60;;;;;;7385253;19;20225;-56
2021/12/22 12:49:44;;;;;;;19.60;12.85;;;2.10;54.70;;;;;;7383276;19;20124;-56
2021/12/22 12:52:25;;;;;;;20.48;12.50;;;2.10;54.80;;;;;;7378100;19;20131;-56
2021/12/22 12:55:14;;;;;;;19.40;12.15;;;2.20;54.90;;;;;;7385129;19;20155;-57
2021/12/22 12:57:44;;;;;;;19.13;11.82;;;2.10;54.50;;;;;;7386421;19;20120;-56
2021/12/22 13:00:26;;;;;;;20.85;13.18;;;2.20;55.10;;;;;;7382472;19;20505;-56
2021/12/22 13:03:09;;;;;;;18.25;13.23;;;2.10;54.90;;;;;;7382652;19;20602;-56
2021/12/22 13:05:40;;;;;;;18.10;12.98;;;2.00;54.90;;;;;;7382554;19;20143;-56
2021/12/22 13:08:10;;;;;;;19.58;12.80;;;2.10;54.90;;;;;;7383311;19;20700;-57